sensor_id;sensor_type;location;lat;lon;timestamp;P1;durP1;ratioP1;P2;durP2;ratioP2
15363;SDS011;7781;49.690;6.472;2022-12-07T00:01:48;7.17;;;4.77;;
15363;SDS011;7781;49.690;6.472;2022-12-07T00:04:17;10.57;;;4.73;;
15363;SDS011;7781;49.690;6.472;2022-12-07T00:06:50;4.73;;;4.10;;
15363;SDS011;7781;49.690;6.472;2022-12-07T00:09:19;8.37;;;4.63;;
15363;SDS011;7781;49.690;6.472;2022-12-07T00:11:48;7.27;;;5.13;;
15363;SDS011;7781;49.690;6.472;2022-12-07T00:14:20;6.93;;;4.80;;
15363;SDS011;7781;49.690;6.472;2022-12-07T00:16:51;7.20;;;4.90;;
15363;SDS011;7781;49.690;6.472;2022-12-07T00:19:20;9.87;;;5.00;;
15363;SDS011;7781;49.690;6.472;2022-12-07T00:21:52;6.47;;;4.80;;
15363;SDS011;7781;49.690;6.472;2022-12-07T00:24:20;8.90;;;5.37;;
15363;SDS011;7781;49.690;6.472;2022-12-07T00:26:48;7.23;;;5.37;;
15363;SDS011;7781;49.690;6.472;2022-12-07T00:29:18;8.77;;;4.23;;
15363;SDS011;7781;49.690;6.472;2022-12-07T00:31:48;9.70;;;5.30;;
15363;SDS011;7781;49.690;6.472;2022-12-07T00:34:18;6.50;;;4.57;;
15363;SDS011;7781;49.690;6.472;2022-12-07T00:36:48;6.10;;;4.83;;
15363;SDS011;7781;49.690;6.472;2022-12-07T00:39:21;8.07;;;5.20;;
15363;SDS011;7781;49.690;6.472;2022-12-07T00:41:50;8.33;;;5.23;;
15363;SDS011;7781;49.690;6.472;2022-12-07T00:44:19;7.93;;;4.67;;
15363;SDS011;7781;49.690;6.472;2022-12-07T00:46:49;9.30;;;4.77;;
15363;SDS011;7781;49.690;6.472;2022-12-07T00:49:22;11.77;;;6.30;;
15363;SDS011;7781;49.690;6.472;2022-12-07T00:51:50;9.93;;;5.97;;
15363;SDS011;7781;49.690;6.472;2022-12-07T00:54:23;7.00;;;4.30;;
15363;SDS011;7781;49.690;6.472;2022-12-07T00:56:51;9.33;;;5.80;;
15363;SDS011;7781;49.690;6.472;2022-12-07T00:59:20;5.90;;;5.17;;
15363;SDS011;7781;49.690;6.472;2022-12-07T01:01:49;14.07;;;7.73;;
15363;SDS011;7781;49.690;6.472;2022-12-07T01:04:18;9.03;;;5.50;;
15363;SDS011;7781;49.690;6.472;2022-12-07T01:06:48;11.10;;;6.37;;
15363;SDS011;7781;49.690;6.472;2022-12-07T01:09:17;15.53;;;6.70;;
15363;SDS011;7781;49.690;6.472;2022-12-07T01:11:47;9.13;;;5.73;;
15363;SDS011;7781;49.690;6.472;2022-12-07T01:14:15;13.57;;;5.80;;
15363;SDS011;7781;49.690;6.472;2022-12-07T01:16:44;8.17;;;4.83;;
15363;SDS011;7781;49.690;6.472;2022-12-07T01:19:13;9.57;;;5.13;;
15363;SDS011;7781;49.690;6.472;2022-12-07T01:21:41;8.77;;;4.80;;
15363;SDS011;7781;49.690;6.472;2022-12-07T01:24:10;8.23;;;5.20;;
15363;SDS011;7781;49.690;6.472;2022-12-07T01:26:40;8.00;;;5.10;;
15363;SDS011;7781;49.690;6.472;2022-12-07T01:29:11;9.27;;;4.97;;
15363;SDS011;7781;49.690;6.472;2022-12-07T01:31:40;10.30;;;5.70;;
15363;SDS011;7781;49.690;6.472;2022-12-07T01:34:09;9.07;;;5.60;;
15363;SDS011;7781;49.690;6.472;2022-12-07T01:36:39;8.37;;;5.33;;
15363;SDS011;7781;49.690;6.472;2022-12-07T01:39:08;10.60;;;6.50;;
15363;SDS011;7781;49.690;6.472;2022-12-07T01:41:40;10.20;;;5.33;;
15363;SDS011;7781;49.690;6.472;2022-12-07T01:44:19;10.97;;;6.60;;
15363;SDS011;7781;49.690;6.472;2022-12-07T01:46:50;9.23;;;6.03;;
15363;SDS011;7781;49.690;6.472;2022-12-07T01:49:22;12.10;;;6.53;;
15363;SDS011;7781;49.690;6.472;2022-12-07T01:51:56;10.27;;;5.80;;
15363;SDS011;7781;49.690;6.472;2022-12-07T01:54:38;9.90;;;5.93;;
15363;SDS011;7781;49.690;6.472;2022-12-07T01:57:07;11.80;;;6.43;;
15363;SDS011;7781;49.690;6.472;2022-12-07T01:59:38;12.90;;;5.43;;
15363;SDS011;7781;49.690;6.472;2022-12-07T02:02:10;11.03;;;6.50;;
15363;SDS011;7781;49.690;6.472;2022-12-07T02:04:41;13.57;;;5.80;;
15363;SDS011;7781;49.690;6.472;2022-12-07T02:07:10;10.87;;;6.53;;
15363;SDS011;7781;49.690;6.472;2022-12-07T02:09:39;12.30;;;6.87;;
15363;SDS011;7781;49.690;6.472;2022-12-07T02:12:08;12.37;;;7.00;;
15363;SDS011;7781;49.690;6.472;2022-12-07T02:14:38;11.33;;;6.33;;
15363;SDS011;7781;49.690;6.472;2022-12-07T02:17:08;12.57;;;6.60;;
15363;SDS011;7781;49.690;6.472;2022-12-07T02:20:11;10.80;;;6.37;;
15363;SDS011;7781;49.690;6.472;2022-12-07T02:23:04;12.87;;;5.73;;
15363;SDS011;7781;49.690;6.472;2022-12-07T02:25:55;11.90;;;6.03;;
15363;SDS011;7781;49.690;6.472;2022-12-07T02:29:03;11.30;;;6.70;;
15363;SDS011;7781;49.690;6.472;2022-12-07T02:31:50;10.87;;;6.10;;
15363;SDS011;7781;49.690;6.472;2022-12-07T02:34:34;13.43;;;7.60;;
15363;SDS011;7781;49.690;6.472;2022-12-07T02:37:10;13.17;;;6.73;;
15363;SDS011;7781;49.690;6.472;2022-12-07T02:39:47;14.00;;;7.40;;
15363;SDS011;7781;49.690;6.472;2022-12-07T02:42:23;10.40;;;6.23;;
15363;SDS011;7781;49.690;6.472;2022-12-07T02:44:58;13.53;;;7.63;;
15363;SDS011;7781;49.690;6.472;2022-12-07T02:47:28;10.37;;;6.70;;
15363;SDS011;7781;49.690;6.472;2022-12-07T02:49:59;11.03;;;6.30;;
15363;SDS011;7781;49.690;6.472;2022-12-07T02:52:30;13.60;;;7.50;;
15363;SDS011;7781;49.690;6.472;2022-12-07T02:54:59;15.50;;;6.90;;
15363;SDS011;7781;49.690;6.472;2022-12-07T02:57:33;10.80;;;6.53;;
15363;SDS011;7781;49.690;6.472;2022-12-07T03:00:12;11.33;;;6.87;;
15363;SDS011;7781;49.690;6.472;2022-12-07T03:02:46;10.60;;;6.50;;
15363;SDS011;7781;49.690;6.472;2022-12-07T03:05:29;16.97;;;8.07;;
15363;SDS011;7781;49.690;6.472;2022-12-07T03:08:11;15.90;;;7.10;;
15363;SDS011;7781;49.690;6.472;2022-12-07T03:10:49;15.90;;;8.00;;
15363;SDS011;7781;49.690;6.472;2022-12-07T03:13:30;16.77;;;8.17;;
15363;SDS011;7781;49.690;6.472;2022-12-07T03:16:09;13.50;;;8.37;;
15363;SDS011;7781;49.690;6.472;2022-12-07T03:18:43;13.77;;;7.50;;
15363;SDS011;7781;49.690;6.472;2022-12-07T03:21:17;13.77;;;8.10;;
15363;SDS011;7781;49.690;6.472;2022-12-07T03:23:48;15.80;;;8.07;;
15363;SDS011;7781;49.690;6.472;2022-12-07T03:26:23;13.00;;;6.40;;
15363;SDS011;7781;49.690;6.472;2022-12-07T03:29:02;14.13;;;7.73;;
15363;SDS011;7781;49.690;6.472;2022-12-07T03:31:37;14.10;;;7.50;;
15363;SDS011;7781;49.690;6.472;2022-12-07T03:34:11;13.20;;;7.17;;
15363;SDS011;7781;49.690;6.472;2022-12-07T03:36:45;11.97;;;6.57;;
15363;SDS011;7781;49.690;6.472;2022-12-07T03:39:19;10.80;;;6.80;;
15363;SDS011;7781;49.690;6.472;2022-12-07T03:41:51;12.80;;;6.83;;
15363;SDS011;7781;49.690;6.472;2022-12-07T03:44:20;14.53;;;7.27;;
15363;SDS011;7781;49.690;6.472;2022-12-07T03:46:53;13.20;;;7.00;;
15363;SDS011;7781;49.690;6.472;2022-12-07T03:49:31;13.87;;;7.27;;
15363;SDS011;7781;49.690;6.472;2022-12-07T03:52:08;16.30;;;6.70;;
15363;SDS011;7781;49.690;6.472;2022-12-07T03:54:45;13.63;;;7.30;;
15363;SDS011;7781;49.690;6.472;2022-12-07T03:57:19;10.93;;;7.30;;
15363;SDS011;7781;49.690;6.472;2022-12-07T03:59:50;12.50;;;7.73;;
15363;SDS011;7781;49.690;6.472;2022-12-07T04:02:23;20.43;;;7.50;;
15363;SDS011;7781;49.690;6.472;2022-12-07T04:04:54;17.20;;;8.23;;
15363;SDS011;7781;49.690;6.472;2022-12-07T04:07:24;12.53;;;7.37;;
15363;SDS011;7781;49.690;6.472;2022-12-07T04:09:52;14.63;;;7.37;;
15363;SDS011;7781;49.690;6.472;2022-12-07T04:12:21;16.20;;;7.67;;
15363;SDS011;7781;49.690;6.472;2022-12-07T04:14:50;10.90;;;6.83;;
15363;SDS011;7781;49.690;6.472;2022-12-07T04:17:19;13.47;;;7.90;;
15363;SDS011;7781;49.690;6.472;2022-12-07T04:19:49;12.83;;;7.93;;
15363;SDS011;7781;49.690;6.472;2022-12-07T04:22:18;12.97;;;6.40;;
15363;SDS011;7781;49.690;6.472;2022-12-07T04:24:47;17.97;;;8.00;;
15363;SDS011;7781;49.690;6.472;2022-12-07T04:27:16;17.57;;;8.33;;
15363;SDS011;7781;49.690;6.472;2022-12-07T04:29:45;11.97;;;7.60;;
15363;SDS011;7781;49.690;6.472;2022-12-07T04:32:14;13.17;;;8.00;;
15363;SDS011;7781;49.690;6.472;2022-12-07T04:34:43;12.13;;;7.70;;
15363;SDS011;7781;49.690;6.472;2022-12-07T04:37:21;15.33;;;8.37;;
15363;SDS011;7781;49.690;6.472;2022-12-07T04:39:50;16.90;;;7.90;;
15363;SDS011;7781;49.690;6.472;2022-12-07T04:42:20;13.27;;;7.83;;
15363;SDS011;7781;49.690;6.472;2022-12-07T04:44:49;15.87;;;7.43;;
15363;SDS011;7781;49.690;6.472;2022-12-07T04:47:18;14.87;;;7.60;;
15363;SDS011;7781;49.690;6.472;2022-12-07T04:49:47;12.90;;;6.97;;
15363;SDS011;7781;49.690;6.472;2022-12-07T04:52:16;11.90;;;7.63;;
15363;SDS011;7781;49.690;6.472;2022-12-07T04:54:49;11.97;;;7.43;;
15363;SDS011;7781;49.690;6.472;2022-12-07T04:57:18;17.80;;;7.87;;
15363;SDS011;7781;49.690;6.472;2022-12-07T04:59:47;13.60;;;7.27;;
15363;SDS011;7781;49.690;6.472;2022-12-07T05:02:15;13.60;;;7.73;;
15363;SDS011;7781;49.690;6.472;2022-12-07T05:04:44;14.60;;;7.77;;
15363;SDS011;7781;49.690;6.472;2022-12-07T05:07:15;18.30;;;8.53;;
15363;SDS011;7781;49.690;6.472;2022-12-07T05:09:44;14.27;;;7.80;;
15363;SDS011;7781;49.690;6.472;2022-12-07T05:12:15;16.27;;;8.60;;
15363;SDS011;7781;49.690;6.472;2022-12-07T05:14:44;13.63;;;8.17;;
15363;SDS011;7781;49.690;6.472;2022-12-07T05:17:13;14.20;;;8.50;;
15363;SDS011;7781;49.690;6.472;2022-12-07T05:19:43;13.90;;;7.90;;
15363;SDS011;7781;49.690;6.472;2022-12-07T05:22:12;19.20;;;7.90;;
15363;SDS011;7781;49.690;6.472;2022-12-07T05:24:41;14.33;;;8.10;;
15363;SDS011;7781;49.690;6.472;2022-12-07T05:27:10;11.77;;;8.07;;
15363;SDS011;7781;49.690;6.472;2022-12-07T05:29:43;15.47;;;7.60;;
15363;SDS011;7781;49.690;6.472;2022-12-07T05:32:12;12.60;;;7.77;;
15363;SDS011;7781;49.690;6.472;2022-12-07T05:34:41;13.43;;;7.90;;
15363;SDS011;7781;49.690;6.472;2022-12-07T05:37:10;14.03;;;7.93;;
15363;SDS011;7781;49.690;6.472;2022-12-07T05:39:39;13.10;;;8.50;;
15363;SDS011;7781;49.690;6.472;2022-12-07T05:42:10;15.77;;;8.30;;
15363;SDS011;7781;49.690;6.472;2022-12-07T05:44:39;15.30;;;9.03;;
15363;SDS011;7781;49.690;6.472;2022-12-07T05:47:10;17.33;;;9.87;;
15363;SDS011;7781;49.690;6.472;2022-12-07T05:49:40;13.30;;;7.90;;
15363;SDS011;7781;49.690;6.472;2022-12-07T05:52:09;15.20;;;8.30;;
15363;SDS011;7781;49.690;6.472;2022-12-07T05:54:37;15.70;;;7.70;;
15363;SDS011;7781;49.690;6.472;2022-12-07T05:57:06;16.47;;;8.77;;
15363;SDS011;7781;49.690;6.472;2022-12-07T05:59:34;15.23;;;8.23;;
15363;SDS011;7781;49.690;6.472;2022-12-07T06:02:04;14.70;;;8.00;;
15363;SDS011;7781;49.690;6.472;2022-12-07T06:04:38;13.93;;;7.77;;
15363;SDS011;7781;49.690;6.472;2022-12-07T06:07:10;13.57;;;8.00;;
15363;SDS011;7781;49.690;6.472;2022-12-07T06:09:43;18.50;;;8.43;;
15363;SDS011;7781;49.690;6.472;2022-12-07T06:12:12;29.80;;;14.03;;
15363;SDS011;7781;49.690;6.472;2022-12-07T06:15:00;15.27;;;8.87;;
15363;SDS011;7781;49.690;6.472;2022-12-07T06:17:29;17.40;;;9.47;;
15363;SDS011;7781;49.690;6.472;2022-12-07T06:20:02;16.00;;;8.30;;
15363;SDS011;7781;49.690;6.472;2022-12-07T06:22:31;13.40;;;8.43;;
15363;SDS011;7781;49.690;6.472;2022-12-07T06:24:59;18.40;;;9.10;;
15363;SDS011;7781;49.690;6.472;2022-12-07T06:27:34;18.87;;;9.37;;
15363;SDS011;7781;49.690;6.472;2022-12-07T06:30:06;12.60;;;7.23;;
15363;SDS011;7781;49.690;6.472;2022-12-07T06:32:36;11.63;;;6.87;;
15363;SDS011;7781;49.690;6.472;2022-12-07T06:35:08;14.90;;;9.20;;
15363;SDS011;7781;49.690;6.472;2022-12-07T06:37:37;14.73;;;8.03;;
15363;SDS011;7781;49.690;6.472;2022-12-07T06:40:07;13.87;;;7.23;;
15363;SDS011;7781;49.690;6.472;2022-12-07T06:42:38;18.30;;;8.70;;
15363;SDS011;7781;49.690;6.472;2022-12-07T06:45:07;14.80;;;8.47;;
15363;SDS011;7781;49.690;6.472;2022-12-07T06:47:36;15.10;;;8.43;;
15363;SDS011;7781;49.690;6.472;2022-12-07T06:50:11;16.13;;;8.30;;
15363;SDS011;7781;49.690;6.472;2022-12-07T06:52:42;13.43;;;7.63;;
15363;SDS011;7781;49.690;6.472;2022-12-07T06:55:11;18.87;;;8.33;;
15363;SDS011;7781;49.690;6.472;2022-12-07T06:57:40;17.37;;;8.43;;
15363;SDS011;7781;49.690;6.472;2022-12-07T07:00:12;14.70;;;7.87;;
15363;SDS011;7781;49.690;6.472;2022-12-07T07:02:47;16.33;;;8.93;;
15363;SDS011;7781;49.690;6.472;2022-12-07T07:05:19;19.10;;;8.90;;
15363;SDS011;7781;49.690;6.472;2022-12-07T07:07:48;18.43;;;8.83;;
15363;SDS011;7781;49.690;6.472;2022-12-07T07:10:38;16.90;;;8.70;;
15363;SDS011;7781;49.690;6.472;2022-12-07T07:13:07;23.53;;;12.13;;
15363;SDS011;7781;49.690;6.472;2022-12-07T07:15:38;19.80;;;10.97;;
15363;SDS011;7781;49.690;6.472;2022-12-07T07:18:07;17.30;;;9.63;;
15363;SDS011;7781;49.690;6.472;2022-12-07T07:20:38;17.93;;;10.33;;
15363;SDS011;7781;49.690;6.472;2022-12-07T07:23:06;17.87;;;9.87;;
15363;SDS011;7781;49.690;6.472;2022-12-07T07:25:35;17.43;;;10.97;;
15363;SDS011;7781;49.690;6.472;2022-12-07T07:28:04;23.07;;;11.10;;
15363;SDS011;7781;49.690;6.472;2022-12-07T07:30:33;20.30;;;11.23;;
15363;SDS011;7781;49.690;6.472;2022-12-07T07:33:01;24.63;;;11.53;;
15363;SDS011;7781;49.690;6.472;2022-12-07T07:35:31;24.20;;;11.50;;
15363;SDS011;7781;49.690;6.472;2022-12-07T07:38:03;19.70;;;9.00;;
15363;SDS011;7781;49.690;6.472;2022-12-07T07:40:32;17.37;;;9.43;;
15363;SDS011;7781;49.690;6.472;2022-12-07T07:43:03;21.03;;;9.80;;
15363;SDS011;7781;49.690;6.472;2022-12-07T07:45:31;18.80;;;9.47;;
15363;SDS011;7781;49.690;6.472;2022-12-07T07:48:00;19.40;;;10.50;;
15363;SDS011;7781;49.690;6.472;2022-12-07T07:50:29;18.83;;;9.17;;
15363;SDS011;7781;49.690;6.472;2022-12-07T07:52:57;22.97;;;9.53;;
15363;SDS011;7781;49.690;6.472;2022-12-07T07:55:28;22.93;;;10.20;;
15363;SDS011;7781;49.690;6.472;2022-12-07T07:57:57;20.23;;;7.67;;
15363;SDS011;7781;49.690;6.472;2022-12-07T08:00:28;18.90;;;9.10;;
15363;SDS011;7781;49.690;6.472;2022-12-07T08:02:57;13.80;;;8.30;;
15363;SDS011;7781;49.690;6.472;2022-12-07T08:05:25;19.90;;;11.20;;
15363;SDS011;7781;49.690;6.472;2022-12-07T08:07:55;21.63;;;10.37;;
15363;SDS011;7781;49.690;6.472;2022-12-07T08:10:25;19.03;;;9.77;;
15363;SDS011;7781;49.690;6.472;2022-12-07T08:12:55;19.20;;;10.00;;
15363;SDS011;7781;49.690;6.472;2022-12-07T08:15:40;20.33;;;9.23;;
15363;SDS011;7781;49.690;6.472;2022-12-07T08:18:10;31.80;;;11.23;;
15363;SDS011;7781;49.690;6.472;2022-12-07T08:20:39;21.20;;;10.97;;
15363;SDS011;7781;49.690;6.472;2022-12-07T08:23:09;23.73;;;10.80;;
15363;SDS011;7781;49.690;6.472;2022-12-07T08:25:38;29.00;;;13.20;;
15363;SDS011;7781;49.690;6.472;2022-12-07T08:28:09;25.07;;;10.87;;
15363;SDS011;7781;49.690;6.472;2022-12-07T08:30:38;26.63;;;11.10;;
15363;SDS011;7781;49.690;6.472;2022-12-07T08:33:06;29.73;;;11.23;;
15363;SDS011;7781;49.690;6.472;2022-12-07T08:35:39;29.30;;;10.57;;
15363;SDS011;7781;49.690;6.472;2022-12-07T08:38:10;26.53;;;9.93;;
15363;SDS011;7781;49.690;6.472;2022-12-07T08:40:40;15.97;;;9.00;;
15363;SDS011;7781;49.690;6.472;2022-12-07T08:43:11;16.03;;;8.20;;
15363;SDS011;7781;49.690;6.472;2022-12-07T08:45:40;14.03;;;7.57;;
15363;SDS011;7781;49.690;6.472;2022-12-07T08:48:09;14.03;;;7.00;;
15363;SDS011;7781;49.690;6.472;2022-12-07T08:50:41;13.67;;;6.50;;
15363;SDS011;7781;49.690;6.472;2022-12-07T08:53:15;15.17;;;6.80;;
15363;SDS011;7781;49.690;6.472;2022-12-07T08:55:47;14.00;;;6.70;;
15363;SDS011;7781;49.690;6.472;2022-12-07T08:58:20;10.10;;;6.20;;
15363;SDS011;7781;49.690;6.472;2022-12-07T09:00:49;13.50;;;7.80;;
15363;SDS011;7781;49.690;6.472;2022-12-07T09:03:18;12.07;;;6.50;;
15363;SDS011;7781;49.690;6.472;2022-12-07T09:05:47;12.20;;;5.10;;
15363;SDS011;7781;49.690;6.472;2022-12-07T09:08:17;11.30;;;6.70;;
15363;SDS011;7781;49.690;6.472;2022-12-07T09:10:46;9.43;;;6.00;;
15363;SDS011;7781;49.690;6.472;2022-12-07T09:13:15;8.47;;;5.30;;
15363;SDS011;7781;49.690;6.472;2022-12-07T09:15:45;11.53;;;6.40;;
15363;SDS011;7781;49.690;6.472;2022-12-07T09:18:14;8.30;;;6.50;;
15363;SDS011;7781;49.690;6.472;2022-12-07T09:20:43;8.90;;;5.80;;
15363;SDS011;7781;49.690;6.472;2022-12-07T09:23:14;10.50;;;5.23;;
15363;SDS011;7781;49.690;6.472;2022-12-07T09:25:42;9.10;;;5.60;;
15363;SDS011;7781;49.690;6.472;2022-12-07T09:28:11;9.20;;;5.53;;
15363;SDS011;7781;49.690;6.472;2022-12-07T09:30:46;10.13;;;5.27;;
15363;SDS011;7781;49.690;6.472;2022-12-07T09:33:37;7.10;;;5.27;;
15363;SDS011;7781;49.690;6.472;2022-12-07T09:36:08;9.10;;;5.03;;
15363;SDS011;7781;49.690;6.472;2022-12-07T09:38:38;9.27;;;4.70;;
15363;SDS011;7781;49.690;6.472;2022-12-07T09:41:06;6.80;;;3.90;;
15363;SDS011;7781;49.690;6.472;2022-12-07T09:43:35;9.63;;;5.10;;
15363;SDS011;7781;49.690;6.472;2022-12-07T09:46:09;10.67;;;5.00;;
15363;SDS011;7781;49.690;6.472;2022-12-07T09:48:43;5.93;;;4.20;;
15363;SDS011;7781;49.690;6.472;2022-12-07T09:51:13;8.97;;;5.13;;
15363;SDS011;7781;49.690;6.472;2022-12-07T09:53:49;8.13;;;5.20;;
15363;SDS011;7781;49.690;6.472;2022-12-07T09:56:20;10.00;;;4.90;;
15363;SDS011;7781;49.690;6.472;2022-12-07T09:58:51;7.73;;;4.43;;
15363;SDS011;7781;49.690;6.472;2022-12-07T10:01:29;15.73;;;6.30;;
15363;SDS011;7781;49.690;6.472;2022-12-07T10:04:01;16.40;;;8.50;;
15363;SDS011;7781;49.690;6.472;2022-12-07T10:06:39;8.23;;;4.70;;
15363;SDS011;7781;49.690;6.472;2022-12-07T10:09:09;8.63;;;5.40;;
15363;SDS011;7781;49.690;6.472;2022-12-07T10:12:00;8.00;;;4.60;;
15363;SDS011;7781;49.690;6.472;2022-12-07T10:14:37;5.37;;;3.90;;
15363;SDS011;7781;49.690;6.472;2022-12-07T10:17:32;6.30;;;4.30;;
15363;SDS011;7781;49.690;6.472;2022-12-07T10:20:11;6.00;;;4.03;;
15363;SDS011;7781;49.690;6.472;2022-12-07T10:22:59;6.63;;;4.23;;
15363;SDS011;7781;49.690;6.472;2022-12-07T10:25:32;7.07;;;4.50;;
15363;SDS011;7781;49.690;6.472;2022-12-07T10:28:09;9.37;;;4.50;;
15363;SDS011;7781;49.690;6.472;2022-12-07T10:30:46;9.03;;;5.30;;
15363;SDS011;7781;49.690;6.472;2022-12-07T10:33:34;7.13;;;5.10;;
15363;SDS011;7781;49.690;6.472;2022-12-07T10:36:19;8.00;;;4.90;;
15363;SDS011;7781;49.690;6.472;2022-12-07T10:38:50;11.03;;;5.23;;
15363;SDS011;7781;49.690;6.472;2022-12-07T10:41:21;10.53;;;5.13;;
15363;SDS011;7781;49.690;6.472;2022-12-07T10:43:52;9.90;;;5.90;;
15363;SDS011;7781;49.690;6.472;2022-12-07T10:49:41;10.20;;;4.90;;
15363;SDS011;7781;49.690;6.472;2022-12-07T10:52:25;8.30;;;4.50;;
15363;SDS011;7781;49.690;6.472;2022-12-07T10:55:12;9.13;;;4.40;;
15363;SDS011;7781;49.690;6.472;2022-12-07T10:57:55;7.20;;;4.20;;
15363;SDS011;7781;49.690;6.472;2022-12-07T11:00:31;5.90;;;3.43;;
15363;SDS011;7781;49.690;6.472;2022-12-07T11:03:17;7.30;;;3.40;;
15363;SDS011;7781;49.690;6.472;2022-12-07T11:06:01;4.10;;;3.00;;
15363;SDS011;7781;49.690;6.472;2022-12-07T11:08:48;7.50;;;3.77;;
15363;SDS011;7781;49.690;6.472;2022-12-07T11:11:26;7.03;;;3.93;;
15363;SDS011;7781;49.690;6.472;2022-12-07T11:14:04;6.70;;;3.40;;
15363;SDS011;7781;49.690;6.472;2022-12-07T11:16:46;9.40;;;4.70;;
15363;SDS011;7781;49.690;6.472;2022-12-07T11:19:24;8.87;;;4.37;;
15363;SDS011;7781;49.690;6.472;2022-12-07T11:22:21;7.43;;;3.40;;
15363;SDS011;7781;49.690;6.472;2022-12-07T11:24:56;4.87;;;2.90;;
15363;SDS011;7781;49.690;6.472;2022-12-07T11:27:44;6.30;;;3.90;;
15363;SDS011;7781;49.690;6.472;2022-12-07T11:30:20;6.80;;;3.47;;
15363;SDS011;7781;49.690;6.472;2022-12-07T11:32:53;8.43;;;3.43;;
15363;SDS011;7781;49.690;6.472;2022-12-07T11:35:36;5.17;;;3.50;;
15363;SDS011;7781;49.690;6.472;2022-12-07T11:38:14;5.43;;;3.00;;
15363;SDS011;7781;49.690;6.472;2022-12-07T11:40:53;5.57;;;2.83;;
15363;SDS011;7781;49.690;6.472;2022-12-07T11:43:45;6.83;;;3.73;;
15363;SDS011;7781;49.690;6.472;2022-12-07T11:46:23;4.30;;;2.80;;
15363;SDS011;7781;49.690;6.472;2022-12-07T11:48:57;5.03;;;2.97;;
15363;SDS011;7781;49.690;6.472;2022-12-07T11:51:33;6.67;;;3.00;;
15363;SDS011;7781;49.690;6.472;2022-12-07T11:54:11;3.20;;;2.50;;
15363;SDS011;7781;49.690;6.472;2022-12-07T11:56:44;6.80;;;2.57;;
15363;SDS011;7781;49.690;6.472;2022-12-07T11:59:17;17.60;;;9.27;;
15363;SDS011;7781;49.690;6.472;2022-12-07T12:01:55;3.13;;;2.47;;
15363;SDS011;7781;49.690;6.472;2022-12-07T12:04:29;7.97;;;3.07;;
15363;SDS011;7781;49.690;6.472;2022-12-07T12:07:02;4.70;;;3.07;;
15363;SDS011;7781;49.690;6.472;2022-12-07T12:09:56;5.27;;;3.13;;
15363;SDS011;7781;49.690;6.472;2022-12-07T12:12:42;3.70;;;2.70;;
15363;SDS011;7781;49.690;6.472;2022-12-07T12:15:44;3.17;;;2.50;;
15363;SDS011;7781;49.690;6.472;2022-12-07T12:18:27;7.00;;;2.87;;
15363;SDS011;7781;49.690;6.472;2022-12-07T12:21:12;4.23;;;2.53;;
15363;SDS011;7781;49.690;6.472;2022-12-07T12:23:46;5.80;;;3.47;;
15363;SDS011;7781;49.690;6.472;2022-12-07T12:26:21;3.37;;;2.50;;
15363;SDS011;7781;49.690;6.472;2022-12-07T12:28:52;8.63;;;4.20;;
15363;SDS011;7781;49.690;6.472;2022-12-07T12:31:31;10.70;;;3.97;;
15363;SDS011;7781;49.690;6.472;2022-12-07T12:34:04;8.57;;;6.50;;
15363;SDS011;7781;49.690;6.472;2022-12-07T12:36:49;5.10;;;3.63;;
15363;SDS011;7781;49.690;6.472;2022-12-07T12:39:19;8.03;;;4.40;;
15363;SDS011;7781;49.690;6.472;2022-12-07T12:50:28;5.93;;;3.03;;
15363;SDS011;7781;49.690;6.472;2022-12-07T12:53:00;6.10;;;3.33;;
15363;SDS011;7781;49.690;6.472;2022-12-07T12:58:42;5.00;;;2.73;;
15363;SDS011;7781;49.690;6.472;2022-12-07T13:04:25;5.40;;;2.77;;
15363;SDS011;7781;49.690;6.472;2022-12-07T13:06:58;6.40;;;3.47;;
15363;SDS011;7781;49.690;6.472;2022-12-07T13:09:29;5.47;;;3.30;;
15363;SDS011;7781;49.690;6.472;2022-12-07T13:12:02;8.53;;;3.60;;
15363;SDS011;7781;49.690;6.472;2022-12-07T13:14:43;6.83;;;3.40;;
15363;SDS011;7781;49.690;6.472;2022-12-07T13:23:23;6.47;;;3.47;;
15363;SDS011;7781;49.690;6.472;2022-12-07T13:26:11;3.40;;;2.37;;
15363;SDS011;7781;49.690;6.472;2022-12-07T13:28:45;4.80;;;3.00;;
15363;SDS011;7781;49.690;6.472;2022-12-07T13:36:59;6.30;;;3.70;;
15363;SDS011;7781;49.690;6.472;2022-12-07T13:39:29;8.03;;;3.83;;
15363;SDS011;7781;49.690;6.472;2022-12-07T13:42:06;7.80;;;3.70;;
15363;SDS011;7781;49.690;6.472;2022-12-07T13:44:51;4.30;;;2.70;;
15363;SDS011;7781;49.690;6.472;2022-12-07T13:47:30;8.57;;;4.10;;
15363;SDS011;7781;49.690;6.472;2022-12-07T13:50:20;3.27;;;2.80;;
15363;SDS011;7781;49.690;6.472;2022-12-07T13:52:54;3.90;;;2.43;;
15363;SDS011;7781;49.690;6.472;2022-12-07T13:55:25;2.57;;;2.10;;
15363;SDS011;7781;49.690;6.472;2022-12-07T13:57:55;6.90;;;2.13;;
15363;SDS011;7781;49.690;6.472;2022-12-07T14:00:27;5.50;;;2.60;;
15363;SDS011;7781;49.690;6.472;2022-12-07T14:03:00;4.50;;;2.50;;
15363;SDS011;7781;49.690;6.472;2022-12-07T14:05:34;4.53;;;3.00;;
15363;SDS011;7781;49.690;6.472;2022-12-07T14:08:04;8.80;;;2.73;;
15363;SDS011;7781;49.690;6.472;2022-12-07T14:10:53;4.83;;;2.10;;
15363;SDS011;7781;49.690;6.472;2022-12-07T14:13:26;4.40;;;2.63;;
15363;SDS011;7781;49.690;6.472;2022-12-07T14:15:58;3.77;;;2.87;;
15363;SDS011;7781;49.690;6.472;2022-12-07T14:18:36;5.17;;;2.40;;
15363;SDS011;7781;49.690;6.472;2022-12-07T14:21:14;3.20;;;2.33;;
15363;SDS011;7781;49.690;6.472;2022-12-07T14:23:43;4.03;;;2.83;;
15363;SDS011;7781;49.690;6.472;2022-12-07T14:26:14;10.77;;;5.57;;
15363;SDS011;7781;49.690;6.472;2022-12-07T14:28:46;10.63;;;5.37;;
15363;SDS011;7781;49.690;6.472;2022-12-07T14:31:16;3.13;;;2.13;;
15363;SDS011;7781;49.690;6.472;2022-12-07T14:34:00;3.50;;;2.67;;
15363;SDS011;7781;49.690;6.472;2022-12-07T14:36:28;4.90;;;2.60;;
15363;SDS011;7781;49.690;6.472;2022-12-07T14:38:57;5.00;;;2.30;;
15363;SDS011;7781;49.690;6.472;2022-12-07T14:41:26;4.17;;;2.40;;
15363;SDS011;7781;49.690;6.472;2022-12-07T14:44:13;5.80;;;2.13;;
15363;SDS011;7781;49.690;6.472;2022-12-07T14:46:55;2.90;;;2.20;;
15363;SDS011;7781;49.690;6.472;2022-12-07T14:49:46;4.60;;;2.10;;
15363;SDS011;7781;49.690;6.472;2022-12-07T14:52:16;3.13;;;2.20;;
15363;SDS011;7781;49.690;6.472;2022-12-07T14:55:12;4.90;;;2.60;;
15363;SDS011;7781;49.690;6.472;2022-12-07T14:57:42;5.10;;;2.30;;
15363;SDS011;7781;49.690;6.472;2022-12-07T15:00:15;4.10;;;2.30;;
15363;SDS011;7781;49.690;6.472;2022-12-07T15:02:46;6.00;;;3.07;;
15363;SDS011;7781;49.690;6.472;2022-12-07T15:05:16;8.27;;;3.37;;
15363;SDS011;7781;49.690;6.472;2022-12-07T15:07:48;9.87;;;5.20;;
15363;SDS011;7781;49.690;6.472;2022-12-07T15:10:18;6.87;;;4.53;;
15363;SDS011;7781;49.690;6.472;2022-12-07T15:12:49;7.70;;;4.60;;
15363;SDS011;7781;49.690;6.472;2022-12-07T15:15:20;9.47;;;5.40;;
15363;SDS011;7781;49.690;6.472;2022-12-07T15:17:51;5.20;;;3.50;;
15363;SDS011;7781;49.690;6.472;2022-12-07T15:20:27;5.60;;;2.63;;
15363;SDS011;7781;49.690;6.472;2022-12-07T15:22:56;4.07;;;2.30;;
15363;SDS011;7781;49.690;6.472;2022-12-07T15:25:24;6.53;;;3.37;;
15363;SDS011;7781;49.690;6.472;2022-12-07T15:27:53;3.13;;;2.70;;
15363;SDS011;7781;49.690;6.472;2022-12-07T15:30:22;4.80;;;2.97;;
15363;SDS011;7781;49.690;6.472;2022-12-07T15:32:51;7.13;;;3.07;;
15363;SDS011;7781;49.690;6.472;2022-12-07T15:35:20;5.70;;;4.00;;
15363;SDS011;7781;49.690;6.472;2022-12-07T15:37:51;6.27;;;3.90;;
15363;SDS011;7781;49.690;6.472;2022-12-07T15:40:20;7.23;;;3.70;;
15363;SDS011;7781;49.690;6.472;2022-12-07T15:42:49;5.80;;;3.70;;
15363;SDS011;7781;49.690;6.472;2022-12-07T15:45:17;7.93;;;4.47;;
15363;SDS011;7781;49.690;6.472;2022-12-07T15:47:46;10.40;;;3.80;;
15363;SDS011;7781;49.690;6.472;2022-12-07T15:50:34;7.10;;;3.10;;
15363;SDS011;7781;49.690;6.472;2022-12-07T15:53:06;7.73;;;4.50;;
15363;SDS011;7781;49.690;6.472;2022-12-07T15:55:38;7.87;;;4.30;;
15363;SDS011;7781;49.690;6.472;2022-12-07T15:58:07;5.03;;;4.13;;
15363;SDS011;7781;49.690;6.472;2022-12-07T16:00:36;7.10;;;4.47;;